createdAt,value
2022-12-23T00:01:23.954Z,0.58
2022-12-23T00:03:51.230Z,0.62
2022-12-23T00:06:19.412Z,0.70
2022-12-23T00:08:46.954Z,0.60
2022-12-23T00:11:18.557Z,0.70
2022-12-23T00:14:04.263Z,0.65
2022-12-23T00:16:31.137Z,0.62
2022-12-23T00:18:57.994Z,0.54
2022-12-23T00:21:24.679Z,0.57
2022-12-23T00:23:51.799Z,0.52
2022-12-23T00:26:21.638Z,0.49
2022-12-23T00:28:48.741Z,0.53
2022-12-23T00:31:18.995Z,0.58
2022-12-23T00:33:47.888Z,0.63
2022-12-23T00:36:27.210Z,0.62
2022-12-23T00:39:13.053Z,0.66
2022-12-23T00:41:58.245Z,0.66
2022-12-23T00:44:25.057Z,0.60
2022-12-23T00:46:52.036Z,0.73
2022-12-23T00:49:38.585Z,0.60
2022-12-23T00:52:07.482Z,0.63
2022-12-23T00:54:34.489Z,0.52
2022-12-23T00:57:01.710Z,0.46
2022-12-23T00:59:28.425Z,0.32
2022-12-23T01:02:13.807Z,0.26
2022-12-23T01:04:59.093Z,0.39
2022-12-23T01:07:26.137Z,0.34
2022-12-23T01:09:52.738Z,0.35
2022-12-23T01:12:19.753Z,0.27
2022-12-23T01:14:46.503Z,0.32
2022-12-23T01:17:13.846Z,0.39
2022-12-23T01:19:40.695Z,0.35
2022-12-23T01:22:07.442Z,0.38
2022-12-23T01:24:34.209Z,0.43
2022-12-23T01:27:01.052Z,0.48
2022-12-23T01:29:27.750Z,0.55
2022-12-23T01:31:54.604Z,0.61
2022-12-23T01:34:21.399Z,0.41
2022-12-23T01:36:48.041Z,0.56
2022-12-23T01:39:14.797Z,0.51
2022-12-23T01:42:00.045Z,0.48
2022-12-23T01:45:06.114Z,0.66
2022-12-23T01:47:33.406Z,0.56
2022-12-23T01:50:08.765Z,0.45
2022-12-23T01:52:36.784Z,0.40
2022-12-23T01:55:03.744Z,0.32
2022-12-23T01:57:30.695Z,0.34
2022-12-23T02:00:15.874Z,0.36
2022-12-23T02:03:02.609Z,0.50
2022-12-23T02:05:29.456Z,0.33
2022-12-23T02:08:14.822Z,0.22
2022-12-23T02:10:52.970Z,0.19
2022-12-23T02:14:14.522Z,0.28
2022-12-23T02:16:46.437Z,0.20
2022-12-23T02:19:30.252Z,0.31
2022-12-23T02:22:24.253Z,0.28
2022-12-23T02:25:24.823Z,0.24
2022-12-23T02:28:17.535Z,0.31
2022-12-23T02:30:57.400Z,0.34
2022-12-23T02:33:36.738Z,0.28
2022-12-23T02:36:28.202Z,0.22
2022-12-23T02:39:00.202Z,0.39
2022-12-23T02:41:45.309Z,0.41
2022-12-23T02:44:31.061Z,0.55
2022-12-23T02:47:20.731Z,0.30
2022-12-23T02:49:56.807Z,0.29
2022-12-23T02:52:27.533Z,0.08
2022-12-23T02:54:57.711Z,0.12
2022-12-23T02:57:30.062Z,0.03
2022-12-23T02:59:57.185Z,0.16
2022-12-23T03:02:24.021Z,0.06
2022-12-23T03:04:50.790Z,0.04
2022-12-23T03:07:21.566Z,0.07
2022-12-23T03:10:06.736Z,0.03
2022-12-23T03:13:02.382Z,-0.01
2022-12-23T03:15:35.272Z,0.12
2022-12-23T03:18:26.757Z,0.20
2022-12-23T03:21:28.554Z,0.14
2022-12-23T03:24:23.122Z,0.22
2022-12-23T03:26:57.507Z,0.21
2022-12-23T03:29:29.323Z,0.02
2022-12-23T03:31:58.779Z,0.17
2022-12-23T03:34:30.150Z,0.04
2022-12-23T03:36:59.384Z,0.21
2022-12-23T03:39:36.018Z,0.24
2022-12-23T03:42:17.839Z,0.12
2022-12-23T03:45:10.685Z,0.11
2022-12-23T03:47:42.179Z,0.11
2022-12-23T03:50:11.703Z,0.09
2022-12-23T03:52:41.819Z,0.06
2022-12-23T03:55:13.873Z,0.10
2022-12-23T03:58:28.550Z,-0.01
2022-12-23T04:01:01.908Z,0.04
2022-12-23T04:03:48.003Z,-0.05
2022-12-23T04:06:16.432Z,0.01
2022-12-23T04:08:44.095Z,-0.09
2022-12-23T04:11:11.530Z,-0.12
2022-12-23T04:13:38.419Z,-0.14
2022-12-23T04:16:05.765Z,-0.08
2022-12-23T04:18:32.557Z,0.00
2022-12-23T04:20:59.395Z,-0.01
2022-12-23T04:23:26.129Z,-0.01
2022-12-23T04:25:52.811Z,-0.14
2022-12-23T04:28:20.169Z,-0.05
2022-12-23T04:30:46.929Z,-0.23
2022-12-23T04:33:13.525Z,-0.12
2022-12-23T04:35:40.249Z,-0.19
2022-12-23T04:38:07.668Z,-0.19
2022-12-23T04:40:34.588Z,-0.24
2022-12-23T04:43:01.265Z,-0.33
2022-12-23T04:45:27.995Z,-0.33
2022-12-23T04:47:55.478Z,-0.27
2022-12-23T04:50:22.162Z,-0.28
2022-12-23T04:52:48.872Z,-0.34
2022-12-23T04:55:15.689Z,-0.30
2022-12-23T04:57:42.364Z,-0.32
2022-12-23T05:00:09.636Z,-0.44
2022-12-23T05:02:36.525Z,-0.32
2022-12-23T05:05:03.860Z,-0.33
2022-12-23T05:07:30.629Z,-0.31
2022-12-23T05:10:01.893Z,-0.33
2022-12-23T05:12:30.433Z,-0.36
2022-12-23T05:14:57.227Z,-0.47
2022-12-23T05:17:24.014Z,-0.59
2022-12-23T05:19:50.642Z,-0.69
2022-12-23T05:22:17.357Z,-0.58
2022-12-23T05:24:44.169Z,-0.65
2022-12-23T05:27:10.794Z,-0.64
2022-12-23T05:29:37.712Z,-0.76
2022-12-23T05:32:04.654Z,-0.62
2022-12-23T05:38:11.094Z,-0.52
2022-12-23T05:40:37.725Z,-0.35
2022-12-23T05:43:04.784Z,-0.21
2022-12-23T05:45:31.619Z,-0.26
2022-12-23T05:47:58.496Z,-0.32
2022-12-23T05:50:25.154Z,-0.40
2022-12-23T05:52:51.978Z,-0.34
2022-12-23T05:55:18.855Z,-0.31
2022-12-23T05:57:45.513Z,-0.32
2022-12-23T06:00:12.712Z,-0.44
2022-12-23T06:02:40.013Z,-0.38
2022-12-23T06:05:07.112Z,-0.38
2022-12-23T06:07:33.817Z,-0.42
2022-12-23T06:10:00.509Z,-0.34
2022-12-23T06:12:27.322Z,-0.33
2022-12-23T06:14:54.115Z,-0.25
2022-12-23T06:17:20.946Z,-0.20
2022-12-23T06:19:47.582Z,-0.36
2022-12-23T06:22:14.603Z,-0.28
2022-12-23T06:24:41.375Z,-0.23
2022-12-23T06:27:08.055Z,-0.21
2022-12-23T06:29:34.867Z,-0.19
2022-12-23T06:32:01.510Z,-0.23
2022-12-23T06:34:28.441Z,-0.28
2022-12-23T06:36:55.120Z,-0.23
2022-12-23T06:39:22.005Z,-0.33
2022-12-23T06:41:48.698Z,-0.32
2022-12-23T06:44:15.461Z,-0.42
2022-12-23T06:46:42.093Z,-0.33
2022-12-23T06:49:13.125Z,-0.38
2022-12-23T06:51:40.511Z,-0.44
2022-12-23T06:54:07.232Z,-0.41
2022-12-23T06:56:34.274Z,-0.34
2022-12-23T06:59:00.945Z,-0.31
2022-12-23T07:01:27.664Z,-0.43
2022-12-23T07:03:54.515Z,-0.28
2022-12-23T07:06:21.130Z,-0.33
2022-12-23T07:08:47.777Z,-0.27
2022-12-23T07:11:14.402Z,-0.07
2022-12-23T07:13:41.162Z,0.00
2022-12-23T07:16:08.854Z,0.11
2022-12-23T07:18:35.952Z,0.13
2022-12-23T07:21:03.525Z,0.03
2022-12-23T07:23:31.020Z,0.11
2022-12-23T07:25:57.730Z,0.13
2022-12-23T07:28:24.726Z,0.17
2022-12-23T07:30:51.583Z,0.25
2022-12-23T07:33:18.299Z,0.25
2022-12-23T07:35:45.036Z,0.38
2022-12-23T07:38:11.962Z,0.44
2022-12-23T07:40:39.096Z,0.30
2022-12-23T07:43:05.806Z,0.45
2022-12-23T07:45:32.557Z,0.50
2022-12-23T07:48:00.965Z,0.54
2022-12-23T07:50:28.391Z,0.51
2022-12-23T07:53:18.700Z,0.53
2022-12-23T07:55:49.123Z,0.67
2022-12-23T07:58:19.896Z,0.61
2022-12-23T08:00:46.649Z,0.53
2022-12-23T08:03:13.565Z,0.42
2022-12-23T08:05:40.259Z,0.37
2022-12-23T08:08:06.993Z,0.48
2022-12-23T08:10:33.960Z,0.37
2022-12-23T08:13:01.044Z,0.40
2022-12-23T08:15:27.693Z,0.33
2022-12-23T08:17:56.267Z,0.58
2022-12-23T08:20:22.902Z,0.54
2022-12-23T08:22:49.515Z,0.75
2022-12-23T08:25:16.298Z,0.77
2022-12-23T08:27:42.873Z,1.16
2022-12-23T08:30:10.031Z,1.12
2022-12-23T08:32:36.840Z,1.24
2022-12-23T08:35:03.584Z,1.39
2022-12-23T08:37:30.312Z,1.23
2022-12-23T08:39:56.981Z,1.24
2022-12-23T08:42:23.688Z,1.19
2022-12-23T08:44:50.266Z,1.45
2022-12-23T08:47:16.950Z,1.57
2022-12-23T08:49:43.693Z,1.62
2022-12-23T08:52:10.413Z,1.68
2022-12-23T08:54:37.086Z,1.93
2022-12-23T08:57:03.825Z,1.82
2022-12-23T08:59:30.441Z,2.00
2022-12-23T09:02:02.219Z,1.88
2022-12-23T09:04:29.053Z,2.07
2022-12-23T09:06:55.848Z,2.22
2022-12-23T09:09:22.558Z,2.17
2022-12-23T09:11:49.336Z,2.09
2022-12-23T09:14:16.032Z,2.22
2022-12-23T09:16:42.888Z,2.17
2022-12-23T09:19:09.665Z,2.14
2022-12-23T09:21:36.535Z,2.08
2022-12-23T09:24:03.295Z,2.11
2022-12-23T09:26:30.711Z,2.17
2022-12-23T09:28:57.503Z,2.19
2022-12-23T09:31:27.951Z,2.38
2022-12-23T09:33:59.314Z,2.35
2022-12-23T09:36:25.949Z,2.32
2022-12-23T09:38:57.018Z,2.34
2022-12-23T09:41:48.834Z,2.21
2022-12-23T09:44:27.746Z,2.19
2022-12-23T09:46:58.767Z,2.15
2022-12-23T09:49:25.650Z,2.24
2022-12-23T09:52:00.271Z,2.30
2022-12-23T09:54:29.512Z,2.32
2022-12-23T09:57:18.052Z,2.27
2022-12-23T09:59:59.873Z,2.19
2022-12-23T10:02:29.792Z,2.25
2022-12-23T10:05:24.755Z,2.17
2022-12-23T10:07:57.513Z,2.22
2022-12-23T10:10:38.949Z,2.12
2022-12-23T10:13:11.968Z,2.03
2022-12-23T10:15:45.022Z,2.21
2022-12-23T10:18:47.196Z,2.41
2022-12-23T10:21:31.276Z,2.46
2022-12-23T10:23:59.933Z,2.48
2022-12-23T10:26:32.672Z,2.77
2022-12-23T10:29:19.341Z,2.64
2022-12-23T10:31:58.577Z,2.75
2022-12-23T10:34:38.110Z,2.74
2022-12-23T10:37:20.278Z,2.77
2022-12-23T10:40:16.292Z,2.92
2022-12-23T10:42:51.260Z,2.90
2022-12-23T10:45:41.319Z,2.78
2022-12-23T10:48:19.816Z,2.73
2022-12-23T10:50:46.573Z,2.65
2022-12-23T10:53:20.324Z,2.55
2022-12-23T10:55:49.046Z,2.56
2022-12-23T10:58:18.428Z,2.54
2022-12-23T11:01:20.311Z,2.75
2022-12-23T11:04:04.944Z,2.85
2022-12-23T11:06:37.127Z,2.82
2022-12-23T11:09:05.579Z,2.82
2022-12-23T11:11:54.608Z,2.84
2022-12-23T11:14:41.701Z,2.88
2022-12-23T11:17:26.980Z,2.77
2022-12-23T11:20:15.879Z,2.86
2022-12-23T11:22:51.701Z,3.00
2022-12-23T11:25:27.690Z,2.92
2022-12-23T11:27:57.891Z,2.96
2022-12-23T11:30:24.890Z,2.88
2022-12-23T11:32:52.550Z,3.05
2022-12-23T11:35:25.313Z,3.14
2022-12-23T11:37:52.074Z,3.41
2022-12-23T11:40:38.239Z,3.77
2022-12-23T11:43:06.935Z,3.86
2022-12-23T11:45:36.083Z,3.63
2022-12-23T11:48:07.166Z,3.54
2022-12-23T11:50:37.790Z,3.28
2022-12-23T11:53:10.340Z,3.19
2022-12-23T11:55:38.421Z,3.13
2022-12-23T11:58:05.284Z,3.03
2022-12-23T12:00:40.754Z,3.08
2022-12-23T12:03:16.772Z,3.21
2022-12-23T12:06:03.546Z,3.19
2022-12-23T12:08:37.108Z,3.22
2022-12-23T12:11:13.679Z,3.38
2022-12-23T12:13:42.438Z,3.43
2022-12-23T12:16:32.548Z,3.21
2022-12-23T12:19:05.678Z,2.91
2022-12-23T12:21:37.060Z,2.75
2022-12-23T12:24:19.028Z,2.60
2022-12-23T12:26:51.232Z,2.58
2022-12-23T12:29:36.575Z,2.68
2022-12-23T12:32:07.283Z,2.75
2022-12-23T12:34:56.542Z,2.79
2022-12-23T12:37:43.244Z,2.71
2022-12-23T12:40:23.857Z,2.80
2022-12-23T12:43:00.098Z,2.62
2022-12-23T12:45:34.597Z,2.50
2022-12-23T12:48:26.054Z,2.51
2022-12-23T12:51:18.951Z,2.44
2022-12-23T12:54:05.956Z,2.42
2022-12-23T12:56:43.958Z,2.35
2022-12-23T12:59:37.065Z,2.37
2022-12-23T13:02:09.957Z,2.38
2022-12-23T13:04:56.641Z,2.26
2022-12-23T13:07:48.421Z,2.34
2022-12-23T13:10:25.164Z,2.26
2022-12-23T13:13:13.567Z,2.23
2022-12-23T13:16:06.879Z,2.13
2022-12-23T13:18:39.420Z,2.15
2022-12-23T13:21:13.414Z,2.10
2022-12-23T13:23:59.255Z,1.95
2022-12-23T13:26:36.424Z,1.80
2022-12-23T13:29:30.645Z,1.70
2022-12-23T13:32:21.911Z,1.61
2022-12-23T13:35:08.355Z,1.50
2022-12-23T13:37:44.191Z,1.58
2022-12-23T13:40:24.948Z,1.52
2022-12-23T13:42:55.883Z,1.34
2022-12-23T13:45:26.621Z,1.22
2022-12-23T13:48:08.546Z,1.09
2022-12-23T13:50:46.528Z,0.99
2022-12-23T13:53:20.558Z,0.88
2022-12-23T13:56:10.626Z,0.86
2022-12-23T13:58:39.489Z,0.78
2022-12-23T14:01:10.254Z,0.78
2022-12-23T14:03:39.112Z,0.69
2022-12-23T14:06:24.237Z,0.70
2022-12-23T14:08:52.276Z,0.60
2022-12-23T14:11:19.544Z,0.59
2022-12-23T14:13:52.527Z,0.52
2022-12-23T14:16:32.202Z,0.54
2022-12-23T14:19:29.871Z,0.51
2022-12-23T14:22:05.476Z,0.49
2022-12-23T14:24:55.335Z,0.47
2022-12-23T14:27:31.280Z,0.43
2022-12-23T14:30:11.855Z,0.31
2022-12-23T14:33:19.179Z,0.17
2022-12-23T14:35:45.823Z,0.22
2022-12-23T14:38:15.471Z,0.20
2022-12-23T14:40:42.160Z,0.23
2022-12-23T14:43:32.068Z,0.05
2022-12-23T14:46:05.022Z,0.01
2022-12-23T14:48:34.855Z,-0.01
2022-12-23T14:51:13.801Z,0.04
2022-12-23T14:53:53.847Z,-0.05
2022-12-23T14:56:38.852Z,0.05
2022-12-23T14:59:14.823Z,-0.09
2022-12-23T15:01:57.207Z,-0.27
2022-12-23T15:04:28.516Z,-0.19
2022-12-23T15:06:59.189Z,-0.23
2022-12-23T15:09:45.429Z,-0.19
2022-12-23T15:12:15.477Z,-0.20
2022-12-23T15:14:50.377Z,-0.22
2022-12-23T15:17:30.263Z,-0.22
2022-12-23T15:20:20.483Z,-0.23
2022-12-23T15:22:48.303Z,-0.23
2022-12-23T15:25:25.128Z,-0.24
2022-12-23T15:28:00.896Z,-0.21
2022-12-23T15:30:30.891Z,-0.13
2022-12-23T15:32:59.639Z,-0.06
2022-12-23T15:35:32.580Z,-0.02
2022-12-23T15:38:00.939Z,0.05
2022-12-23T15:40:33.846Z,0.03
2022-12-23T15:43:01.670Z,0.10
2022-12-23T15:45:42.628Z,0.18
2022-12-23T15:48:29.458Z,0.21
2022-12-23T15:51:08.533Z,0.33
2022-12-23T15:53:37.856Z,0.44
2022-12-23T15:56:08.860Z,0.48
2022-12-23T15:58:39.083Z,0.61
2022-12-23T16:01:06.670Z,0.69
2022-12-23T16:03:36.659Z,0.68
2022-12-23T16:06:41.969Z,0.73
2022-12-23T16:09:17.921Z,0.70
2022-12-23T16:12:05.580Z,0.65
2022-12-23T16:14:40.498Z,0.67
2022-12-23T16:17:10.222Z,0.72
2022-12-23T16:19:44.120Z,0.83
2022-12-23T16:22:30.151Z,0.80
2022-12-23T16:24:56.873Z,0.81
2022-12-23T16:27:37.087Z,0.80
2022-12-23T16:30:19.732Z,0.81
2022-12-23T16:32:52.381Z,0.86
2022-12-23T16:35:40.348Z,0.95
2022-12-23T16:38:20.252Z,0.94
2022-12-23T16:40:51.290Z,1.04
2022-12-23T16:43:19.327Z,0.95
2022-12-23T16:45:47.648Z,1.01
2022-12-23T16:48:23.800Z,0.97
2022-12-23T16:50:52.468Z,1.00
2022-12-23T16:53:19.610Z,0.96
2022-12-23T16:55:52.426Z,0.92
2022-12-23T16:58:23.422Z,1.11
2022-12-23T17:00:51.581Z,1.13
2022-12-23T17:03:19.770Z,0.96
2022-12-23T17:05:47.323Z,1.13
2022-12-23T17:08:14.543Z,1.08
2022-12-23T17:10:42.399Z,1.05
2022-12-23T17:13:11.954Z,1.09
2022-12-23T17:15:38.732Z,1.08
2022-12-23T17:18:12.392Z,1.09
2022-12-23T17:20:39.169Z,1.07
2022-12-23T17:23:06.232Z,1.11
2022-12-23T17:25:33.323Z,1.15
2022-12-23T17:28:00.031Z,1.20
2022-12-23T17:30:26.776Z,1.06
2022-12-23T17:32:58.164Z,1.13
2022-12-23T17:35:25.673Z,1.15
2022-12-23T17:37:53.398Z,1.08
2022-12-23T17:40:20.947Z,0.96
2022-12-23T17:42:47.922Z,0.91
2022-12-23T17:45:25.846Z,0.98
2022-12-23T17:47:53.250Z,0.99
2022-12-23T17:50:20.440Z,0.93
2022-12-23T17:52:47.640Z,0.81
2022-12-23T17:55:21.394Z,0.64
2022-12-23T17:57:48.495Z,0.51
2022-12-23T18:00:24.125Z,0.44
2022-12-23T18:02:56.625Z,0.25
2022-12-23T18:05:27.151Z,0.45
2022-12-23T18:07:55.090Z,0.49
2022-12-23T18:10:27.765Z,0.61
2022-12-23T18:12:58.048Z,0.37
2022-12-23T18:15:36.820Z,0.41
2022-12-23T18:18:13.613Z,0.50
2022-12-23T18:20:41.213Z,0.50
2022-12-23T18:23:13.197Z,0.42
2022-12-23T18:25:40.514Z,0.48
2022-12-23T18:28:07.824Z,0.60
2022-12-23T18:30:34.654Z,0.65
2022-12-23T18:33:01.364Z,0.56
2022-12-23T18:35:38.465Z,0.53
2022-12-23T18:38:05.315Z,0.52
2022-12-23T18:40:33.232Z,0.52
2022-12-23T18:43:00.130Z,0.61
2022-12-23T18:45:31.976Z,0.72
2022-12-23T18:47:59.286Z,0.66
2022-12-23T18:50:27.012Z,0.75
2022-12-23T18:52:54.272Z,0.63
2022-12-23T18:55:21.478Z,0.76
2022-12-23T18:57:49.429Z,0.63
2022-12-23T19:00:22.128Z,0.75
2022-12-23T19:02:50.197Z,0.64
2022-12-23T19:05:29.076Z,0.75
2022-12-23T19:07:57.524Z,0.71
2022-12-23T19:10:24.153Z,0.89
2022-12-23T19:12:51.498Z,0.89
2022-12-23T19:15:19.030Z,0.92
2022-12-23T19:17:46.528Z,0.81
2022-12-23T19:20:15.664Z,0.68
2022-12-23T19:22:42.457Z,0.78
2022-12-23T19:25:11.677Z,0.78
2022-12-23T19:27:44.648Z,0.88
2022-12-23T19:30:14.294Z,1.01
2022-12-23T19:32:41.075Z,0.96
2022-12-23T19:35:08.454Z,1.00
2022-12-23T19:37:36.480Z,1.06
2022-12-23T19:40:03.491Z,0.97
2022-12-23T19:42:30.726Z,0.88
2022-12-23T19:44:57.591Z,0.97
2022-12-23T19:47:24.261Z,1.18
2022-12-23T19:49:50.972Z,1.06
2022-12-23T19:52:17.775Z,1.03
2022-12-23T19:54:44.489Z,1.16
2022-12-23T19:57:11.216Z,1.01
2022-12-23T19:59:38.062Z,1.02
2022-12-23T20:02:04.730Z,0.93
2022-12-23T20:04:32.171Z,1.02
2022-12-23T20:06:58.910Z,1.02
2022-12-23T20:09:25.697Z,1.01
2022-12-23T20:11:52.357Z,0.98
2022-12-23T20:14:19.541Z,0.99
2022-12-23T20:16:48.341Z,0.99
2022-12-23T20:19:15.663Z,0.99
2022-12-23T20:21:42.376Z,1.09
2022-12-23T20:24:09.805Z,1.05
2022-12-23T20:26:36.664Z,1.04
2022-12-23T20:29:03.420Z,1.11
2022-12-23T20:31:32.575Z,1.09
2022-12-23T20:34:00.873Z,1.13
2022-12-23T20:36:30.727Z,1.25
2022-12-23T20:38:58.217Z,1.16
2022-12-23T20:41:27.694Z,1.21
2022-12-23T20:44:31.829Z,1.16
2022-12-23T20:46:41.487Z,1.13
2022-12-23T20:49:08.283Z,1.15
2022-12-23T20:51:35.240Z,1.09
2022-12-23T20:54:01.992Z,1.11
2022-12-23T20:56:30.454Z,1.11
2022-12-23T20:58:59.532Z,1.01
2022-12-23T21:01:27.729Z,1.16
2022-12-23T21:03:55.203Z,1.23
2022-12-23T21:06:22.095Z,1.22
2022-12-23T21:08:48.793Z,1.18
2022-12-23T21:11:15.963Z,1.19
2022-12-23T21:13:43.994Z,1.16
2022-12-23T21:16:12.296Z,1.35
2022-12-23T21:18:44.619Z,1.34
2022-12-23T21:21:12.382Z,1.22
2022-12-23T21:23:42.492Z,1.12
2022-12-23T21:26:17.233Z,1.00
2022-12-23T21:28:46.428Z,1.07
2022-12-23T21:31:17.630Z,0.87
2022-12-23T21:33:45.501Z,0.95
2022-12-23T21:36:19.841Z,0.94
2022-12-23T21:38:47.296Z,0.80
2022-12-23T21:41:19.505Z,0.85
2022-12-23T21:43:46.351Z,0.73
2022-12-23T21:46:15.385Z,0.77
2022-12-23T21:48:42.700Z,0.67
2022-12-23T21:51:24.365Z,0.75
2022-12-23T21:53:52.769Z,0.89
2022-12-23T21:56:28.498Z,0.93
2022-12-23T21:59:00.290Z,0.76
2022-12-23T22:01:28.091Z,0.87
2022-12-23T22:03:55.883Z,0.69
2022-12-23T22:06:28.414Z,0.88
2022-12-23T22:08:55.571Z,0.82
2022-12-23T22:11:26.135Z,0.87
2022-12-23T22:13:53.302Z,0.80
2022-12-23T22:16:22.158Z,0.89
2022-12-23T22:18:49.436Z,0.90
2022-12-23T22:21:19.205Z,0.86
2022-12-23T22:23:46.900Z,0.81
2022-12-23T22:26:20.251Z,0.92
2022-12-23T22:28:50.854Z,0.95
2022-12-23T22:31:18.456Z,0.97
2022-12-23T22:33:45.474Z,0.98
2022-12-23T22:36:15.714Z,1.16
2022-12-23T22:38:43.616Z,1.09
2022-12-23T22:41:10.889Z,1.12
2022-12-23T22:43:37.755Z,1.19
2022-12-23T22:46:04.876Z,1.05
2022-12-23T22:48:31.815Z,1.06
2022-12-23T22:51:07.613Z,1.02
2022-12-23T22:53:34.243Z,0.97
2022-12-23T22:56:01.984Z,1.03
2022-12-23T22:58:30.144Z,0.99
2022-12-23T23:00:58.305Z,0.86
2022-12-23T23:03:26.412Z,1.03
2022-12-23T23:06:00.998Z,1.01
2022-12-23T23:08:28.615Z,0.95
2022-12-23T23:10:59.857Z,1.01
2022-12-23T23:13:29.410Z,0.96
2022-12-23T23:15:56.393Z,1.06
2022-12-23T23:18:23.776Z,0.90
2022-12-23T23:20:50.645Z,0.84
2022-12-23T23:23:17.826Z,0.91
2022-12-23T23:25:45.427Z,1.02
2022-12-23T23:28:14.069Z,0.98
2022-12-23T23:30:41.102Z,0.97
2022-12-23T23:33:08.659Z,0.95
2022-12-23T23:35:35.928Z,0.95
2022-12-23T23:38:02.629Z,0.99
2022-12-23T23:40:29.954Z,1.06
2022-12-23T23:42:56.629Z,1.03
2022-12-23T23:45:23.512Z,1.02
2022-12-23T23:47:50.465Z,1.06
2022-12-23T23:50:17.119Z,1.11
2022-12-23T23:52:43.814Z,0.93
2022-12-23T23:55:10.542Z,1.08
2022-12-23T23:57:37.501Z,1.07
